sensor_id;sensor_type;location;lat;lon;timestamp;P1;durP1;ratioP1;P2;durP2;ratioP2
25279;SDS011;13225;47.804;12.116;2023-02-28T00:00:31;8.80;;;5.75;;
25279;SDS011;13225;47.804;12.116;2023-02-28T00:02:58;9.75;;;5.38;;
25279;SDS011;13225;47.804;12.116;2023-02-28T00:05:24;8.75;;;5.28;;
25279;SDS011;13225;47.804;12.116;2023-02-28T00:07:51;8.63;;;5.18;;
25279;SDS011;13225;47.804;12.116;2023-02-28T00:10:22;7.38;;;5.43;;
25279;SDS011;13225;47.804;12.116;2023-02-28T00:12:50;10.57;;;5.20;;
25279;SDS011;13225;47.804;12.116;2023-02-28T00:15:17;7.68;;;4.90;;
25279;SDS011;13225;47.804;12.116;2023-02-28T00:17:43;8.95;;;5.10;;
25279;SDS011;13225;47.804;12.116;2023-02-28T00:20:09;9.35;;;5.15;;
25279;SDS011;13225;47.804;12.116;2023-02-28T00:22:44;7.55;;;4.65;;
25279;SDS011;13225;47.804;12.116;2023-02-28T00:25:12;7.57;;;5.18;;
25279;SDS011;13225;47.804;12.116;2023-02-28T00:27:39;8.50;;;5.38;;
25279;SDS011;13225;47.804;12.116;2023-02-28T00:30:06;11.02;;;5.90;;
25279;SDS011;13225;47.804;12.116;2023-02-28T00:32:34;6.93;;;4.97;;
25279;SDS011;13225;47.804;12.116;2023-02-28T00:35:00;10.88;;;5.57;;
25279;SDS011;13225;47.804;12.116;2023-02-28T00:37:26;9.55;;;5.57;;
25279;SDS011;13225;47.804;12.116;2023-02-28T00:39:52;11.68;;;6.13;;
25279;SDS011;13225;47.804;12.116;2023-02-28T00:42:18;8.02;;;5.22;;
25279;SDS011;13225;47.804;12.116;2023-02-28T00:44:43;10.00;;;5.55;;
25279;SDS011;13225;47.804;12.116;2023-02-28T00:47:09;9.73;;;5.30;;
25279;SDS011;13225;47.804;12.116;2023-02-28T00:49:35;10.88;;;6.07;;
25279;SDS011;13225;47.804;12.116;2023-02-28T00:52:00;10.13;;;5.45;;
25279;SDS011;13225;47.804;12.116;2023-02-28T00:54:26;9.38;;;5.60;;
25279;SDS011;13225;47.804;12.116;2023-02-28T00:56:52;11.70;;;5.55;;
25279;SDS011;13225;47.804;12.116;2023-02-28T00:59:17;11.63;;;5.43;;
25279;SDS011;13225;47.804;12.116;2023-02-28T01:01:44;12.82;;;5.65;;
25279;SDS011;13225;47.804;12.116;2023-02-28T01:04:10;12.00;;;6.22;;
25279;SDS011;13225;47.804;12.116;2023-02-28T01:06:36;10.98;;;5.90;;
25279;SDS011;13225;47.804;12.116;2023-02-28T01:09:03;14.65;;;6.18;;
25279;SDS011;13225;47.804;12.116;2023-02-28T01:11:30;10.55;;;6.38;;
25279;SDS011;13225;47.804;12.116;2023-02-28T01:13:56;12.90;;;6.45;;
25279;SDS011;13225;47.804;12.116;2023-02-28T01:16:22;11.32;;;6.35;;
25279;SDS011;13225;47.804;12.116;2023-02-28T01:18:48;11.48;;;6.22;;
25279;SDS011;13225;47.804;12.116;2023-02-28T01:21:15;9.57;;;6.00;;
25279;SDS011;13225;47.804;12.116;2023-02-28T01:23:42;11.50;;;6.38;;
25279;SDS011;13225;47.804;12.116;2023-02-28T01:26:15;12.25;;;6.28;;
25279;SDS011;13225;47.804;12.116;2023-02-28T01:28:46;9.25;;;5.82;;
25279;SDS011;13225;47.804;12.116;2023-02-28T01:31:12;10.05;;;6.15;;
25279;SDS011;13225;47.804;12.116;2023-02-28T01:33:38;10.80;;;6.15;;
25279;SDS011;13225;47.804;12.116;2023-02-28T01:36:11;11.05;;;6.60;;
25279;SDS011;13225;47.804;12.116;2023-02-28T01:38:39;11.20;;;6.50;;
25279;SDS011;13225;47.804;12.116;2023-02-28T01:41:05;13.45;;;6.32;;
25279;SDS011;13225;47.804;12.116;2023-02-28T01:43:54;11.82;;;6.35;;
25279;SDS011;13225;47.804;12.116;2023-02-28T01:46:23;12.75;;;6.40;;
25279;SDS011;13225;47.804;12.116;2023-02-28T01:48:51;12.80;;;6.25;;
25279;SDS011;13225;47.804;12.116;2023-02-28T01:51:31;13.18;;;7.00;;
25279;SDS011;13225;47.804;12.116;2023-02-28T01:54:10;13.20;;;7.00;;
25279;SDS011;13225;47.804;12.116;2023-02-28T01:56:46;16.45;;;7.10;;
25279;SDS011;13225;47.804;12.116;2023-02-28T01:59:23;13.43;;;6.65;;
25279;SDS011;13225;47.804;12.116;2023-02-28T02:01:54;12.40;;;7.10;;
25279;SDS011;13225;47.804;12.116;2023-02-28T02:04:21;14.18;;;7.55;;
25279;SDS011;13225;47.804;12.116;2023-02-28T02:06:48;15.32;;;7.85;;
25279;SDS011;13225;47.804;12.116;2023-02-28T02:09:14;15.65;;;7.45;;
25279;SDS011;13225;47.804;12.116;2023-02-28T02:11:40;14.00;;;7.53;;
25279;SDS011;13225;47.804;12.116;2023-02-28T02:14:13;13.65;;;7.40;;
25279;SDS011;13225;47.804;12.116;2023-02-28T02:17:06;15.32;;;7.78;;
25279;SDS011;13225;47.804;12.116;2023-02-28T02:25:45;16.80;;;7.53;;
25279;SDS011;13225;47.804;12.116;2023-02-28T02:28:39;13.88;;;6.90;;
25279;SDS011;13225;47.804;12.116;2023-02-28T02:40:30;15.45;;;7.53;;
25279;SDS011;13225;47.804;12.116;2023-02-28T02:42:55;15.48;;;7.38;;
25279;SDS011;13225;47.804;12.116;2023-02-28T02:45:33;16.55;;;7.80;;
25279;SDS011;13225;47.804;12.116;2023-02-28T02:48:15;14.35;;;7.68;;
25279;SDS011;13225;47.804;12.116;2023-02-28T02:50:45;13.73;;;7.45;;
25279;SDS011;13225;47.804;12.116;2023-02-28T02:53:14;17.65;;;8.45;;
25279;SDS011;13225;47.804;12.116;2023-02-28T02:55:46;15.57;;;8.87;;
25279;SDS011;13225;47.804;12.116;2023-02-28T02:58:19;13.60;;;6.97;;
25279;SDS011;13225;47.804;12.116;2023-02-28T03:00:53;14.18;;;7.00;;
25279;SDS011;13225;47.804;12.116;2023-02-28T03:03:23;11.32;;;6.72;;
25279;SDS011;13225;47.804;12.116;2023-02-28T03:05:54;13.98;;;7.47;;
25279;SDS011;13225;47.804;12.116;2023-02-28T03:08:21;12.85;;;7.32;;
25279;SDS011;13225;47.804;12.116;2023-02-28T03:10:51;14.98;;;7.40;;
25279;SDS011;13225;47.804;12.116;2023-02-28T03:24:16;21.08;;;7.93;;
25279;SDS011;13225;47.804;12.116;2023-02-28T03:26:57;15.07;;;8.10;;
25279;SDS011;13225;47.804;12.116;2023-02-28T03:29:33;19.13;;;8.52;;
25279;SDS011;13225;47.804;12.116;2023-02-28T03:32:04;19.48;;;9.40;;
25279;SDS011;13225;47.804;12.116;2023-02-28T03:34:42;22.45;;;8.80;;
25279;SDS011;13225;47.804;12.116;2023-02-28T03:37:31;17.45;;;8.02;;
25279;SDS011;13225;47.804;12.116;2023-02-28T03:40:03;17.73;;;8.43;;
25279;SDS011;13225;47.804;12.116;2023-02-28T03:42:34;19.00;;;8.90;;
25279;SDS011;13225;47.804;12.116;2023-02-28T03:45:08;16.08;;;7.80;;
25279;SDS011;13225;47.804;12.116;2023-02-28T03:47:46;22.98;;;9.38;;
25279;SDS011;13225;47.804;12.116;2023-02-28T03:50:27;23.52;;;9.63;;
25279;SDS011;13225;47.804;12.116;2023-02-28T03:53:02;23.77;;;10.55;;
25279;SDS011;13225;47.804;12.116;2023-02-28T03:55:37;25.60;;;11.15;;
25279;SDS011;13225;47.804;12.116;2023-02-28T04:01:13;26.15;;;10.77;;
25279;SDS011;13225;47.804;12.116;2023-02-28T04:03:46;26.38;;;10.95;;
25279;SDS011;13225;47.804;12.116;2023-02-28T04:06:16;27.13;;;10.85;;
25279;SDS011;13225;47.804;12.116;2023-02-28T04:08:44;25.05;;;11.23;;
25279;SDS011;13225;47.804;12.116;2023-02-28T04:14:03;28.38;;;10.52;;
25279;SDS011;13225;47.804;12.116;2023-02-28T04:16:30;23.08;;;10.45;;
25279;SDS011;13225;47.804;12.116;2023-02-28T04:18:56;20.30;;;10.63;;
25279;SDS011;13225;47.804;12.116;2023-02-28T04:21:27;21.38;;;9.10;;
25279;SDS011;13225;47.804;12.116;2023-02-28T04:23:54;21.42;;;9.27;;
25279;SDS011;13225;47.804;12.116;2023-02-28T04:26:20;20.65;;;9.25;;
25279;SDS011;13225;47.804;12.116;2023-02-28T04:28:45;18.95;;;9.05;;
25279;SDS011;13225;47.804;12.116;2023-02-28T04:31:11;18.67;;;8.65;;
25279;SDS011;13225;47.804;12.116;2023-02-28T04:33:36;17.95;;;9.15;;
25279;SDS011;13225;47.804;12.116;2023-02-28T04:36:03;19.77;;;9.10;;
25279;SDS011;13225;47.804;12.116;2023-02-28T04:38:35;20.17;;;9.25;;
25279;SDS011;13225;47.804;12.116;2023-02-28T04:41:02;17.88;;;8.70;;
25279;SDS011;13225;47.804;12.116;2023-02-28T04:43:28;19.48;;;9.05;;
25279;SDS011;13225;47.804;12.116;2023-02-28T04:45:55;22.83;;;10.20;;
25279;SDS011;13225;47.804;12.116;2023-02-28T04:48:25;18.38;;;9.27;;
25279;SDS011;13225;47.804;12.116;2023-02-28T04:50:53;19.60;;;9.55;;
25279;SDS011;13225;47.804;12.116;2023-02-28T04:53:18;22.77;;;10.43;;
25279;SDS011;13225;47.804;12.116;2023-02-28T04:55:44;31.58;;;12.02;;
25279;SDS011;13225;47.804;12.116;2023-02-28T04:58:10;22.65;;;10.35;;
25279;SDS011;13225;47.804;12.116;2023-02-28T05:00:37;21.45;;;10.27;;
25279;SDS011;13225;47.804;12.116;2023-02-28T05:03:03;22.35;;;9.80;;
25279;SDS011;13225;47.804;12.116;2023-02-28T05:05:29;25.70;;;10.00;;
25279;SDS011;13225;47.804;12.116;2023-02-28T05:07:55;21.48;;;10.30;;
25279;SDS011;13225;47.804;12.116;2023-02-28T05:10:21;22.73;;;10.00;;
25279;SDS011;13225;47.804;12.116;2023-02-28T05:12:48;29.90;;;11.43;;
25279;SDS011;13225;47.804;12.116;2023-02-28T05:15:14;33.97;;;11.40;;
25279;SDS011;13225;47.804;12.116;2023-02-28T05:17:41;20.33;;;9.32;;
25279;SDS011;13225;47.804;12.116;2023-02-28T05:20:07;20.75;;;8.85;;
25279;SDS011;13225;47.804;12.116;2023-02-28T05:22:38;19.95;;;9.10;;
25279;SDS011;13225;47.804;12.116;2023-02-28T05:25:04;19.60;;;8.73;;
25279;SDS011;13225;47.804;12.116;2023-02-28T05:27:30;40.72;;;13.65;;
25279;SDS011;13225;47.804;12.116;2023-02-28T05:29:56;36.97;;;14.18;;
25279;SDS011;13225;47.804;12.116;2023-02-28T05:32:22;19.05;;;9.27;;
25279;SDS011;13225;47.804;12.116;2023-02-28T05:34:48;19.40;;;9.88;;
25279;SDS011;13225;47.804;12.116;2023-02-28T05:37:13;30.80;;;12.20;;
25279;SDS011;13225;47.804;12.116;2023-02-28T05:39:40;27.52;;;11.68;;
25279;SDS011;13225;47.804;12.116;2023-02-28T05:42:06;24.13;;;9.90;;
25279;SDS011;13225;47.804;12.116;2023-02-28T05:44:32;19.38;;;9.30;;
25279;SDS011;13225;47.804;12.116;2023-02-28T05:46:58;24.90;;;10.10;;
25279;SDS011;13225;47.804;12.116;2023-02-28T05:49:24;24.35;;;10.00;;
25279;SDS011;13225;47.804;12.116;2023-02-28T05:51:51;25.05;;;9.23;;
25279;SDS011;13225;47.804;12.116;2023-02-28T05:54:16;21.05;;;9.32;;
25279;SDS011;13225;47.804;12.116;2023-02-28T05:56:42;20.35;;;10.18;;
25279;SDS011;13225;47.804;12.116;2023-02-28T05:59:10;23.73;;;10.10;;
25279;SDS011;13225;47.804;12.116;2023-02-28T06:04:04;23.55;;;9.98;;
25279;SDS011;13225;47.804;12.116;2023-02-28T06:06:31;26.80;;;10.55;;
25279;SDS011;13225;47.804;12.116;2023-02-28T06:08:59;27.77;;;11.90;;
25279;SDS011;13225;47.804;12.116;2023-02-28T06:11:25;23.60;;;11.15;;
25279;SDS011;13225;47.804;12.116;2023-02-28T06:13:55;22.58;;;9.80;;
25279;SDS011;13225;47.804;12.116;2023-02-28T06:16:23;33.80;;;11.63;;
25279;SDS011;13225;47.804;12.116;2023-02-28T06:18:49;41.10;;;12.57;;
25279;SDS011;13225;47.804;12.116;2023-02-28T06:21:15;39.55;;;11.75;;
25279;SDS011;13225;47.804;12.116;2023-02-28T06:23:40;38.47;;;12.70;;
25279;SDS011;13225;47.804;12.116;2023-02-28T06:26:06;30.25;;;12.13;;
25279;SDS011;13225;47.804;12.116;2023-02-28T06:28:31;35.95;;;13.13;;
25279;SDS011;13225;47.804;12.116;2023-02-28T06:30:57;32.22;;;13.20;;
25279;SDS011;13225;47.804;12.116;2023-02-28T06:33:24;26.08;;;11.02;;
25279;SDS011;13225;47.804;12.116;2023-02-28T06:35:50;33.28;;;12.68;;
25279;SDS011;13225;47.804;12.116;2023-02-28T06:38:16;26.10;;;12.45;;
25279;SDS011;13225;47.804;12.116;2023-02-28T06:40:43;32.50;;;12.95;;
25279;SDS011;13225;47.804;12.116;2023-02-28T06:43:09;31.75;;;13.60;;
25279;SDS011;13225;47.804;12.116;2023-02-28T06:45:41;30.67;;;12.90;;
25279;SDS011;13225;47.804;12.116;2023-02-28T06:48:09;29.58;;;13.90;;
25279;SDS011;13225;47.804;12.116;2023-02-28T06:50:35;29.25;;;14.07;;
25279;SDS011;13225;47.804;12.116;2023-02-28T06:53:01;36.67;;;14.55;;
25279;SDS011;13225;47.804;12.116;2023-02-28T06:55:28;38.17;;;15.77;;
25279;SDS011;13225;47.804;12.116;2023-02-28T06:57:53;33.67;;;14.63;;
25279;SDS011;13225;47.804;12.116;2023-02-28T07:00:20;31.17;;;13.38;;
25279;SDS011;13225;47.804;12.116;2023-02-28T07:02:46;30.48;;;13.27;;
25279;SDS011;13225;47.804;12.116;2023-02-28T07:05:12;38.03;;;14.38;;
25279;SDS011;13225;47.804;12.116;2023-02-28T07:07:38;25.88;;;12.07;;
25279;SDS011;13225;47.804;12.116;2023-02-28T07:10:08;28.60;;;12.43;;
25279;SDS011;13225;47.804;12.116;2023-02-28T07:12:36;33.75;;;13.57;;
25279;SDS011;13225;47.804;12.116;2023-02-28T07:15:02;34.10;;;14.07;;
25279;SDS011;13225;47.804;12.116;2023-02-28T07:17:29;36.80;;;14.15;;
25279;SDS011;13225;47.804;12.116;2023-02-28T07:19:55;39.63;;;15.88;;
25279;SDS011;13225;47.804;12.116;2023-02-28T07:22:21;43.72;;;17.75;;
25279;SDS011;13225;47.804;12.116;2023-02-28T07:24:46;37.10;;;15.60;;
25279;SDS011;13225;47.804;12.116;2023-02-28T07:27:12;35.38;;;13.98;;
25279;SDS011;13225;47.804;12.116;2023-02-28T07:29:48;28.05;;;12.38;;
25279;SDS011;13225;47.804;12.116;2023-02-28T07:32:17;53.47;;;19.98;;
25279;SDS011;13225;47.804;12.116;2023-02-28T07:34:43;33.40;;;13.63;;
25279;SDS011;13225;47.804;12.116;2023-02-28T07:37:10;29.80;;;13.23;;
25279;SDS011;13225;47.804;12.116;2023-02-28T07:39:35;28.00;;;11.88;;
25279;SDS011;13225;47.804;12.116;2023-02-28T07:42:04;26.98;;;11.00;;
25279;SDS011;13225;47.804;12.116;2023-02-28T07:44:31;22.95;;;10.05;;
25279;SDS011;13225;47.804;12.116;2023-02-28T07:46:57;23.85;;;11.27;;
25279;SDS011;13225;47.804;12.116;2023-02-28T07:49:22;20.02;;;9.63;;
25279;SDS011;13225;47.804;12.116;2023-02-28T07:51:48;16.95;;;9.02;;
25279;SDS011;13225;47.804;12.116;2023-02-28T07:54:14;17.50;;;8.70;;
25279;SDS011;13225;47.804;12.116;2023-02-28T07:56:39;19.48;;;9.20;;
25279;SDS011;13225;47.804;12.116;2023-02-28T07:59:05;21.08;;;9.93;;
25279;SDS011;13225;47.804;12.116;2023-02-28T08:01:30;17.75;;;9.07;;
25279;SDS011;13225;47.804;12.116;2023-02-28T08:03:56;20.38;;;9.60;;
25279;SDS011;13225;47.804;12.116;2023-02-28T08:06:22;17.80;;;9.85;;
25279;SDS011;13225;47.804;12.116;2023-02-28T08:08:49;26.08;;;11.18;;
25279;SDS011;13225;47.804;12.116;2023-02-28T08:11:16;33.22;;;10.93;;
25279;SDS011;13225;47.804;12.116;2023-02-28T08:13:42;23.35;;;10.52;;
25279;SDS011;13225;47.804;12.116;2023-02-28T08:16:09;21.63;;;11.23;;
25279;SDS011;13225;47.804;12.116;2023-02-28T08:18:36;25.58;;;11.48;;
25279;SDS011;13225;47.804;12.116;2023-02-28T08:21:05;23.27;;;10.93;;
25279;SDS011;13225;47.804;12.116;2023-02-28T08:23:32;32.30;;;12.77;;
25279;SDS011;13225;47.804;12.116;2023-02-28T08:25:58;38.55;;;14.35;;
25279;SDS011;13225;47.804;12.116;2023-02-28T08:28:24;23.13;;;11.77;;
25279;SDS011;13225;47.804;12.116;2023-02-28T08:30:50;30.83;;;15.52;;
25279;SDS011;13225;47.804;12.116;2023-02-28T08:33:16;43.53;;;21.98;;
25279;SDS011;13225;47.804;12.116;2023-02-28T08:35:42;26.15;;;13.50;;
25279;SDS011;13225;47.804;12.116;2023-02-28T08:38:07;28.52;;;13.85;;
25279;SDS011;13225;47.804;12.116;2023-02-28T08:40:33;37.63;;;14.90;;
25279;SDS011;13225;47.804;12.116;2023-02-28T08:42:58;26.90;;;12.57;;
25279;SDS011;13225;47.804;12.116;2023-02-28T08:45:24;27.58;;;11.73;;
25279;SDS011;13225;47.804;12.116;2023-02-28T08:47:50;26.60;;;12.77;;
25279;SDS011;13225;47.804;12.116;2023-02-28T08:50:17;20.75;;;10.95;;
25279;SDS011;13225;47.804;12.116;2023-02-28T08:52:43;23.02;;;10.43;;
25279;SDS011;13225;47.804;12.116;2023-02-28T08:55:09;17.15;;;8.93;;
25279;SDS011;13225;47.804;12.116;2023-02-28T08:57:35;18.80;;;8.52;;
25279;SDS011;13225;47.804;12.116;2023-02-28T09:00:01;14.88;;;8.02;;
25279;SDS011;13225;47.804;12.116;2023-02-28T09:02:30;18.33;;;9.45;;
25279;SDS011;13225;47.804;12.116;2023-02-28T09:04:56;20.85;;;10.07;;
25279;SDS011;13225;47.804;12.116;2023-02-28T09:07:23;26.65;;;10.45;;
25279;SDS011;13225;47.804;12.116;2023-02-28T09:09:49;22.75;;;10.68;;
25279;SDS011;13225;47.804;12.116;2023-02-28T09:12:23;18.38;;;9.40;;
25279;SDS011;13225;47.804;12.116;2023-02-28T09:14:49;23.25;;;10.35;;
25279;SDS011;13225;47.804;12.116;2023-02-28T09:17:15;17.17;;;9.82;;
25279;SDS011;13225;47.804;12.116;2023-02-28T09:19:41;19.42;;;9.88;;
25279;SDS011;13225;47.804;12.116;2023-02-28T09:22:07;25.45;;;10.77;;
25279;SDS011;13225;47.804;12.116;2023-02-28T09:24:33;18.48;;;10.18;;
25279;SDS011;13225;47.804;12.116;2023-02-28T09:27:00;17.45;;;9.55;;
25279;SDS011;13225;47.804;12.116;2023-02-28T09:29:25;21.50;;;11.23;;
25279;SDS011;13225;47.804;12.116;2023-02-28T09:31:51;23.65;;;11.85;;
25279;SDS011;13225;47.804;12.116;2023-02-28T09:34:17;19.17;;;10.25;;
25279;SDS011;13225;47.804;12.116;2023-02-28T09:36:42;20.23;;;10.43;;
25279;SDS011;13225;47.804;12.116;2023-02-28T09:39:08;21.67;;;10.65;;
25279;SDS011;13225;47.804;12.116;2023-02-28T09:41:38;21.70;;;10.50;;
25279;SDS011;13225;47.804;12.116;2023-02-28T09:44:35;19.13;;;8.55;;
25279;SDS011;13225;47.804;12.116;2023-02-28T09:47:14;18.48;;;9.02;;
25279;SDS011;13225;47.804;12.116;2023-02-28T09:49:55;25.85;;;12.38;;
25279;SDS011;13225;47.804;12.116;2023-02-28T09:52:27;14.68;;;8.65;;
25279;SDS011;13225;47.804;12.116;2023-02-28T09:55:01;22.73;;;12.43;;
25279;SDS011;13225;47.804;12.116;2023-02-28T09:57:43;26.00;;;12.10;;
25279;SDS011;13225;47.804;12.116;2023-02-28T10:06:32;20.70;;;12.00;;
25279;SDS011;13225;47.804;12.116;2023-02-28T10:11:38;21.08;;;11.85;;
25279;SDS011;13225;47.804;12.116;2023-02-28T10:16:50;20.35;;;11.02;;
25279;SDS011;13225;47.804;12.116;2023-02-28T10:24:39;29.38;;;13.13;;
25279;SDS011;13225;47.804;12.116;2023-02-28T10:29:36;25.85;;;13.15;;
25279;SDS011;13225;47.804;12.116;2023-02-28T10:32:08;26.88;;;13.73;;
25279;SDS011;13225;47.804;12.116;2023-02-28T10:34:36;23.05;;;11.02;;
25279;SDS011;13225;47.804;12.116;2023-02-28T10:37:01;28.70;;;13.90;;
25279;SDS011;13225;47.804;12.116;2023-02-28T10:42:02;22.73;;;12.63;;
25279;SDS011;13225;47.804;12.116;2023-02-28T10:44:29;27.60;;;12.27;;
25279;SDS011;13225;47.804;12.116;2023-02-28T10:46:55;27.30;;;13.10;;
25279;SDS011;13225;47.804;12.116;2023-02-28T10:49:27;23.90;;;12.93;;
25279;SDS011;13225;47.804;12.116;2023-02-28T10:51:55;26.17;;;12.80;;
25279;SDS011;13225;47.804;12.116;2023-02-28T10:54:30;24.33;;;11.93;;
25279;SDS011;13225;47.804;12.116;2023-02-28T10:59:31;26.23;;;12.77;;
25279;SDS011;13225;47.804;12.116;2023-02-28T11:01:57;36.25;;;16.20;;
25279;SDS011;13225;47.804;12.116;2023-02-28T11:07:01;41.40;;;16.98;;
25279;SDS011;13225;47.804;12.116;2023-02-28T11:09:36;30.97;;;15.50;;
25279;SDS011;13225;47.804;12.116;2023-02-28T11:12:05;26.85;;;14.05;;
25279;SDS011;13225;47.804;12.116;2023-02-28T11:14:36;27.77;;;14.20;;
25279;SDS011;13225;47.804;12.116;2023-02-28T11:17:13;18.60;;;8.73;;
25279;SDS011;13225;47.804;12.116;2023-02-28T11:19:45;20.65;;;9.45;;
25279;SDS011;13225;47.804;12.116;2023-02-28T11:22:16;21.73;;;12.10;;
25279;SDS011;13225;47.804;12.116;2023-02-28T11:24:53;29.15;;;14.52;;
25279;SDS011;13225;47.804;12.116;2023-02-28T11:29:51;23.77;;;12.27;;
25279;SDS011;13225;47.804;12.116;2023-02-28T11:32:19;23.05;;;12.43;;
25279;SDS011;13225;47.804;12.116;2023-02-28T11:34:47;27.10;;;14.15;;
25279;SDS011;13225;47.804;12.116;2023-02-28T11:37:47;27.52;;;14.05;;
25279;SDS011;13225;47.804;12.116;2023-02-28T11:40:16;28.90;;;13.88;;
25279;SDS011;13225;47.804;12.116;2023-02-28T11:46:23;26.52;;;11.48;;
25279;SDS011;13225;47.804;12.116;2023-02-28T11:51:27;20.10;;;10.25;;
25279;SDS011;13225;47.804;12.116;2023-02-28T11:54:05;33.78;;;16.35;;
25279;SDS011;13225;47.804;12.116;2023-02-28T11:56:48;39.15;;;16.98;;
25279;SDS011;13225;47.804;12.116;2023-02-28T12:07:44;24.33;;;12.27;;
25279;SDS011;13225;47.804;12.116;2023-02-28T12:10:38;26.52;;;12.38;;
25279;SDS011;13225;47.804;12.116;2023-02-28T12:13:18;22.77;;;12.02;;
25279;SDS011;13225;47.804;12.116;2023-02-28T12:15:53;28.00;;;13.93;;
25279;SDS011;13225;47.804;12.116;2023-02-28T12:18:56;25.20;;;13.93;;
25279;SDS011;13225;47.804;12.116;2023-02-28T12:27:12;26.35;;;14.32;;
25279;SDS011;13225;47.804;12.116;2023-02-28T12:29:56;28.48;;;14.10;;
25279;SDS011;13225;47.804;12.116;2023-02-28T12:32:40;27.80;;;14.23;;
25279;SDS011;13225;47.804;12.116;2023-02-28T12:37:38;26.23;;;13.88;;
25279;SDS011;13225;47.804;12.116;2023-02-28T12:40:28;52.13;;;12.93;;
25279;SDS011;13225;47.804;12.116;2023-02-28T12:43:07;27.60;;;15.02;;
25279;SDS011;13225;47.804;12.116;2023-02-28T12:48:14;28.77;;;13.98;;
25279;SDS011;13225;47.804;12.116;2023-02-28T12:50:45;64.05;;;15.48;;
25279;SDS011;13225;47.804;12.116;2023-02-28T12:59:10;24.67;;;14.02;;
25279;SDS011;13225;47.804;12.116;2023-02-28T13:11:25;19.70;;;12.82;;
25279;SDS011;13225;47.804;12.116;2023-02-28T13:14:06;21.25;;;12.95;;
25279;SDS011;13225;47.804;12.116;2023-02-28T13:17:03;22.35;;;12.48;;
25279;SDS011;13225;47.804;12.116;2023-02-28T13:19:36;19.67;;;11.30;;
25279;SDS011;13225;47.804;12.116;2023-02-28T13:24:52;21.95;;;12.82;;
25279;SDS011;13225;47.804;12.116;2023-02-28T13:29:57;21.67;;;12.70;;
25279;SDS011;13225;47.804;12.116;2023-02-28T13:39:58;24.98;;;14.40;;
25279;SDS011;13225;47.804;12.116;2023-02-28T13:42:52;23.52;;;12.98;;
25279;SDS011;13225;47.804;12.116;2023-02-28T13:48:01;24.60;;;13.43;;
25279;SDS011;13225;47.804;12.116;2023-02-28T14:04:33;23.45;;;14.13;;
25279;SDS011;13225;47.804;12.116;2023-02-28T14:07:23;22.35;;;13.75;;
25279;SDS011;13225;47.804;12.116;2023-02-28T14:09:57;24.58;;;14.32;;
25279;SDS011;13225;47.804;12.116;2023-02-28T14:20:47;21.15;;;13.13;;
25279;SDS011;13225;47.804;12.116;2023-02-28T14:26:00;20.08;;;13.10;;
25279;SDS011;13225;47.804;12.116;2023-02-28T14:31:36;24.13;;;14.00;;
25279;SDS011;13225;47.804;12.116;2023-02-28T14:37:01;22.60;;;13.90;;
25279;SDS011;13225;47.804;12.116;2023-02-28T14:39:28;20.88;;;12.77;;
25279;SDS011;13225;47.804;12.116;2023-02-28T14:41:56;23.23;;;13.50;;
25279;SDS011;13225;47.804;12.116;2023-02-28T14:44:28;22.83;;;12.23;;
25279;SDS011;13225;47.804;12.116;2023-02-28T14:46:55;24.67;;;14.10;;
25279;SDS011;13225;47.804;12.116;2023-02-28T14:54:37;26.80;;;14.85;;
25279;SDS011;13225;47.804;12.116;2023-02-28T14:57:04;25.15;;;14.50;;
25279;SDS011;13225;47.804;12.116;2023-02-28T14:59:34;22.77;;;14.23;;
25279;SDS011;13225;47.804;12.116;2023-02-28T15:02:14;54.65;;;16.67;;
25279;SDS011;13225;47.804;12.116;2023-02-28T15:04:41;27.73;;;19.02;;
25279;SDS011;13225;47.804;12.116;2023-02-28T15:07:07;24.23;;;13.73;;
25279;SDS011;13225;47.804;12.116;2023-02-28T15:09:38;26.60;;;14.50;;
25279;SDS011;13225;47.804;12.116;2023-02-28T15:12:04;27.38;;;16.33;;
25279;SDS011;13225;47.804;12.116;2023-02-28T15:14:30;27.55;;;17.10;;
25279;SDS011;13225;47.804;12.116;2023-02-28T15:16:58;19.50;;;11.07;;
25279;SDS011;13225;47.804;12.116;2023-02-28T15:19:33;25.10;;;14.85;;
25279;SDS011;13225;47.804;12.116;2023-02-28T15:22:04;28.13;;;14.88;;
25279;SDS011;13225;47.804;12.116;2023-02-28T15:24:38;26.63;;;15.30;;
25279;SDS011;13225;47.804;12.116;2023-02-28T15:27:14;25.90;;;15.32;;
25279;SDS011;13225;47.804;12.116;2023-02-28T15:29:46;29.25;;;15.57;;
25279;SDS011;13225;47.804;12.116;2023-02-28T15:35:17;27.83;;;14.75;;
25279;SDS011;13225;47.804;12.116;2023-02-28T15:40:27;27.02;;;15.23;;
25279;SDS011;13225;47.804;12.116;2023-02-28T15:42:58;30.52;;;16.02;;
25279;SDS011;13225;47.804;12.116;2023-02-28T15:45:46;26.52;;;15.02;;
25279;SDS011;13225;47.804;12.116;2023-02-28T15:48:23;27.27;;;15.27;;
25279;SDS011;13225;47.804;12.116;2023-02-28T15:50:56;30.38;;;15.00;;
25279;SDS011;13225;47.804;12.116;2023-02-28T15:53:33;29.08;;;15.55;;
25279;SDS011;13225;47.804;12.116;2023-02-28T15:56:07;34.83;;;16.38;;
25279;SDS011;13225;47.804;12.116;2023-02-28T15:59:00;29.13;;;15.43;;
25279;SDS011;13225;47.804;12.116;2023-02-28T16:01:32;28.02;;;16.05;;
25279;SDS011;13225;47.804;12.116;2023-02-28T16:04:00;28.08;;;15.57;;
25279;SDS011;13225;47.804;12.116;2023-02-28T16:06:41;31.23;;;16.50;;
25279;SDS011;13225;47.804;12.116;2023-02-28T16:09:12;31.55;;;15.93;;
25279;SDS011;13225;47.804;12.116;2023-02-28T16:11:44;33.70;;;16.25;;
25279;SDS011;13225;47.804;12.116;2023-02-28T16:14:18;37.55;;;18.90;;
25279;SDS011;13225;47.804;12.116;2023-02-28T16:16:49;36.50;;;18.48;;
25279;SDS011;13225;47.804;12.116;2023-02-28T16:19:17;37.35;;;18.90;;
25279;SDS011;13225;47.804;12.116;2023-02-28T16:21:44;37.55;;;19.55;;
25279;SDS011;13225;47.804;12.116;2023-02-28T16:24:10;33.38;;;18.55;;
25279;SDS011;13225;47.804;12.116;2023-02-28T16:26:36;35.80;;;19.67;;
25279;SDS011;13225;47.804;12.116;2023-02-28T16:29:04;33.08;;;17.80;;
25279;SDS011;13225;47.804;12.116;2023-02-28T16:31:31;36.78;;;18.38;;
25279;SDS011;13225;47.804;12.116;2023-02-28T16:34:03;41.15;;;23.50;;
25279;SDS011;13225;47.804;12.116;2023-02-28T16:36:29;42.08;;;22.75;;
25279;SDS011;13225;47.804;12.116;2023-02-28T16:38:55;40.08;;;20.77;;
25279;SDS011;13225;47.804;12.116;2023-02-28T16:41:22;44.38;;;21.13;;
25279;SDS011;13225;47.804;12.116;2023-02-28T16:43:52;45.45;;;20.40;;
25279;SDS011;13225;47.804;12.116;2023-02-28T16:46:23;41.30;;;19.70;;
25279;SDS011;13225;47.804;12.116;2023-02-28T16:48:52;40.40;;;20.02;;
25279;SDS011;13225;47.804;12.116;2023-02-28T16:51:17;41.05;;;19.67;;
25279;SDS011;13225;47.804;12.116;2023-02-28T16:53:44;52.63;;;24.75;;
25279;SDS011;13225;47.804;12.116;2023-02-28T16:56:23;44.55;;;21.95;;
25279;SDS011;13225;47.804;12.116;2023-02-28T16:58:50;42.22;;;20.38;;
25279;SDS011;13225;47.804;12.116;2023-02-28T17:01:17;43.95;;;20.70;;
25279;SDS011;13225;47.804;12.116;2023-02-28T17:03:46;45.05;;;21.85;;
25279;SDS011;13225;47.804;12.116;2023-02-28T17:06:17;43.00;;;20.38;;
25279;SDS011;13225;47.804;12.116;2023-02-28T17:08:47;48.10;;;22.75;;
25279;SDS011;13225;47.804;12.116;2023-02-28T17:11:13;113.10;;;43.83;;